Terminal Aerodrome Forecast
Issued by NWS Greer, SC

Home | Current Version | Previous Version | Text Only | Print | Product List | Glossary On
Versions: 1 2 3 4 5 6 7 8 9 10 11 12 13 14 15 16 17 18 19 20 21 22 23
000
FTUS42 KGSP 252320
TAFCLT
TAF
KCLT 252320Z 2600/2624 21008KT P6SM FEW060 SCT250
     FM260200 20005KT P6SM FEW250
     FM261500 22004KT P6SM SCT060
     FM262100 21007KT P6SM VCSH BKN060=

USA.gov is the U.S. government's official web portal to all federal, state and local government web resources and services.